Time;durP1;ratioP1;P1;durP2;ratioP2;P2;SDS_P1;SDS_P2;PMS_P1;PMS_P2;Temp;Humidity;BMP_temperature;BMP_pressure;BME280_temperature;BME280_humidity;BME280_pressure;Samples;Min_cycle;Max_cycle;Signal;HPM_P1;HPM_P2
2022/09/10 00:00:42;;;;;;;13.10;11.75;;;14.30;99.90;;;;;;5054148;28;20041;-69
2022/09/10 00:03:11;;;;;;;14.15;12.85;;;14.30;99.90;;;;;;5073725;28;20037;-68
2022/09/10 00:05:45;;;;;;;13.95;12.57;;;14.30;99.90;;;;;;5054824;28;20049;-68
2022/09/10 00:08:11;;;;;;;17.10;14.02;;;14.30;99.90;;;;;;5040011;28;20045;-68
2022/09/10 00:10:42;;;;;;;14.82;12.88;;;14.30;99.90;;;;;;5073710;28;20029;-69
2022/09/10 00:13:09;;;;;;;15.27;13.55;;;14.30;99.90;;;;;;5069554;28;20119;-69
2022/09/10 00:15:39;;;;;;;16.20;14.60;;;14.30;99.90;;;;;;5052940;28;20037;-68
2022/09/10 00:18:07;;;;;;;14.98;13.07;;;14.30;99.90;;;;;;5048421;28;20535;-68
2022/09/10 00:20:34;;;;;;;17.75;15.70;;;14.30;99.90;;;;;;5053583;28;20033;-69
2022/09/10 00:23:01;;;;;;;15.27;13.52;;;14.30;99.90;;;;;;5050759;28;20049;-68
2022/09/10 00:25:31;;;;;;;17.23;14.77;;;14.30;99.90;;;;;;5071286;28;20049;-69
2022/09/10 00:27:59;;;;;;;16.88;15.13;;;14.30;99.90;;;;;;5059563;28;20049;-69
2022/09/10 00:30:26;;;;;;;15.77;14.27;;;14.30;99.90;;;;;;5057593;28;20065;-68
2022/09/10 00:32:52;;;;;;;17.35;15.55;;;14.40;99.90;;;;;;5056000;28;20542;-68
2022/09/10 00:35:19;;;;;;;18.35;16.45;;;14.40;99.90;;;;;;5074845;28;20048;-69
2022/09/10 00:37:45;;;;;;;18.27;16.52;;;14.30;99.90;;;;;;5057138;28;20029;-69
2022/09/10 00:40:12;;;;;;;17.90;15.98;;;14.40;99.90;;;;;;5057684;28;20037;-68
2022/09/10 00:42:42;;;;;;;20.70;16.95;;;14.40;99.90;;;;;;5055185;28;20043;-69
2022/09/10 00:45:19;;;;;;;18.50;16.67;;;14.50;99.90;;;;;;5050846;28;20073;-69
2022/09/10 00:47:46;;;;;;;18.80;16.85;;;14.40;99.90;;;;;;5056952;28;20049;-69
2022/09/10 00:50:26;;;;;;;21.38;17.52;;;14.50;99.90;;;;;;5053130;28;20085;-68
2022/09/10 00:52:55;;;;;;;19.27;17.30;;;14.50;99.90;;;;;;5043136;28;20047;-69
2022/09/10 00:55:22;;;;;;;19.05;17.20;;;14.50;99.90;;;;;;5059120;28;20120;-69
2022/09/10 00:57:53;;;;;;;19.88;17.85;;;14.50;99.90;;;;;;5054771;28;20103;-69
2022/09/10 01:00:19;;;;;;;18.48;16.67;;;14.50;99.90;;;;;;5070024;28;20473;-67
2022/09/10 01:02:46;;;;;;;21.90;17.67;;;14.50;99.90;;;;;;5035900;28;20113;-67
2022/09/10 01:05:13;;;;;;;19.08;17.08;;;14.50;99.90;;;;;;5073364;28;20037;-69
2022/09/10 01:07:39;;;;;;;18.33;16.40;;;14.40;99.90;;;;;;5039388;28;20042;-68
2022/09/10 01:10:13;;;;;;;20.70;18.50;;;14.50;99.90;;;;;;5050746;28;20037;-68
2022/09/10 01:13:05;;;;;;;;;;;14.50;99.90;;;;;;5057626;28;20091;-68
2022/09/10 01:15:47;;;;;;;21.85;18.30;;;14.50;99.90;;;;;;5053055;28;20019;-68
2022/09/10 01:18:33;;;;;;;21.13;19.00;;;14.50;99.90;;;;;;5054096;28;20135;-68
2022/09/10 01:21:12;;;;;;;23.40;19.40;;;14.50;99.90;;;;;;5055567;28;20049;-68
2022/09/10 01:23:53;;;;;;;22.35;20.10;;;14.60;99.90;;;;;;5073940;28;20055;-68
2022/09/10 01:26:46;;;;;;;22.27;20.08;;;14.60;99.90;;;;;;5057123;28;20042;-67
2022/09/10 01:29:25;;;;;;;22.15;19.35;;;14.60;99.90;;;;;;5038661;28;20037;-69
2022/09/10 01:32:05;;;;;;;22.15;20.00;;;14.60;99.90;;;;;;5052391;28;20056;-68
2022/09/10 01:34:51;;;;;;;24.52;21.20;;;14.60;99.90;;;;;;5065528;28;20080;-68
2022/09/10 01:37:23;;;;;;;22.85;20.52;;;14.70;99.90;;;;;;5050968;28;20041;-68
2022/09/10 01:39:52;;;;;;;24.15;21.65;;;14.60;99.90;;;;;;5051685;28;20049;-68
2022/09/10 01:42:18;;;;;;;23.55;21.10;;;14.70;99.90;;;;;;5070770;28;20052;-68
2022/09/10 01:44:48;;;;;;;23.80;21.50;;;14.70;99.90;;;;;;5069239;28;20061;-68
2022/09/10 01:47:36;;;;;;;23.58;21.00;;;14.70;99.90;;;;;;5053149;28;20057;-68
2022/09/10 01:50:14;;;;;;;25.05;22.45;;;14.70;99.90;;;;;;5036158;28;20152;-68
2022/09/10 01:53:12;;;;;;;24.70;22.13;;;14.70;99.90;;;;;;5056693;28;20060;-68
2022/09/10 01:56:08;;;;;;;24.65;22.05;;;14.80;99.90;;;;;;5054755;28;20059;-69
2022/09/10 01:58:39;;;;;;;23.15;20.42;;;14.80;99.90;;;;;;5022289;28;20053;-68
2022/09/10 02:01:28;;;;;;;24.63;22.17;;;14.80;99.90;;;;;;5052116;28;20143;-68
2022/09/10 02:04:02;;;;;;;23.35;21.10;;;14.80;99.90;;;;;;5041346;28;20056;-69
2022/09/10 02:06:31;;;;;;;23.05;20.40;;;14.80;99.90;;;;;;5054619;28;20048;-68
2022/09/10 02:08:59;;;;;;;23.83;20.27;;;14.80;99.90;;;;;;5053631;28;20042;-68
2022/09/10 02:11:25;;;;;;;23.77;21.27;;;14.80;99.90;;;;;;5050483;28;20033;-70
2022/09/10 02:13:52;;;;;;;24.95;22.23;;;14.80;99.90;;;;;;5051606;28;20052;-69
2022/09/10 02:16:29;;;;;;;22.73;19.73;;;14.80;99.90;;;;;;5034089;28;20049;-69
2022/09/10 02:18:57;;;;;;;24.25;21.75;;;14.80;99.90;;;;;;5047453;28;20037;-69
2022/09/10 02:21:23;;;;;;;23.23;21.02;;;14.80;99.90;;;;;;5050074;28;20092;-68
2022/09/10 02:23:55;;;;;;;23.35;20.75;;;14.80;99.90;;;;;;5050826;28;20048;-68
2022/09/10 02:26:22;;;;;;;21.27;19.25;;;14.80;99.90;;;;;;5069510;28;20037;-69
2022/09/10 02:28:48;;;;;;;23.38;20.90;;;14.80;99.90;;;;;;5068603;28;20089;-68
2022/09/10 02:31:14;;;;;;;22.83;20.30;;;14.80;99.90;;;;;;5054280;28;20033;-68
2022/09/10 02:33:40;;;;;;;22.92;20.35;;;14.80;99.90;;;;;;5055639;28;20028;-68
2022/09/10 02:36:06;;;;;;;23.23;19.35;;;14.80;99.90;;;;;;5058627;28;20044;-68
2022/09/10 02:38:32;;;;;;;23.17;20.75;;;14.80;99.90;;;;;;5041521;28;20036;-68
2022/09/10 02:40:58;;;;;;;19.95;17.95;;;14.80;99.90;;;;;;5053065;28;20233;-68
2022/09/10 02:43:27;;;;;;;23.48;21.23;;;14.80;99.90;;;;;;5027654;28;20068;-70
2022/09/10 02:45:57;;;;;;;23.25;20.63;;;14.80;99.90;;;;;;5041526;28;20049;-68
2022/09/10 02:48:26;;;;;;;24.33;21.95;;;14.80;99.90;;;;;;5051981;28;20045;-68
2022/09/10 02:50:53;;;;;;;22.83;20.15;;;14.80;99.90;;;;;;5054428;28;20060;-68
2022/09/10 02:53:19;;;;;;;22.75;20.40;;;14.70;99.90;;;;;;5070068;28;20075;-68
2022/09/10 02:55:46;;;;;;;24.50;21.98;;;14.70;99.90;;;;;;5053527;28;20092;-69
2022/09/10 02:58:12;;;;;;;23.58;20.95;;;14.70;99.90;;;;;;5034439;28;20094;-69
2022/09/10 03:00:39;;;;;;;27.85;21.65;;;14.70;99.90;;;;;;5059226;28;20041;-69
2022/09/10 03:03:05;;;;;;;26.15;21.58;;;14.70;99.90;;;;;;5068980;28;20075;-67
2022/09/10 03:05:31;;;;;;;24.33;21.80;;;14.80;99.90;;;;;;5056007;28;20037;-67
2022/09/10 03:07:57;;;;;;;31.23;21.08;;;14.70;99.90;;;;;;5048860;28;20080;-67
2022/09/10 03:10:23;;;;;;;25.48;21.88;;;14.80;99.90;;;;;;5053124;28;20032;-67
2022/09/10 03:12:49;;;;;;;23.70;21.25;;;14.80;99.90;;;;;;5048604;28;20060;-67
2022/09/10 03:15:16;;;;;;;23.38;20.92;;;14.80;99.90;;;;;;5054217;28;20427;-67
2022/09/10 03:17:42;;;;;;;25.20;21.05;;;14.70;99.90;;;;;;5056238;28;20033;-67
2022/09/10 03:20:08;;;;;;;23.05;20.33;;;14.70;99.90;;;;;;5056360;28;20219;-67
2022/09/10 03:22:34;;;;;;;22.17;19.85;;;14.70;99.90;;;;;;5038714;28;20037;-66
2022/09/10 03:25:00;;;;;;;25.88;22.25;;;14.70;99.90;;;;;;5039959;28;20060;-67
2022/09/10 03:27:25;;;;;;;24.08;21.42;;;14.80;99.90;;;;;;5043381;28;20049;-68
2022/09/10 03:29:51;;;;;;;24.63;20.35;;;14.70;99.90;;;;;;5050381;28;20119;-67
2022/09/10 03:32:17;;;;;;;22.90;20.50;;;14.70;99.90;;;;;;5065754;28;20061;-68
2022/09/10 03:34:43;;;;;;;25.45;22.35;;;14.70;99.90;;;;;;5064998;28;20052;-68
2022/09/10 03:37:09;;;;;;;24.20;21.25;;;14.70;99.90;;;;;;5051168;28;20069;-68
2022/09/10 03:39:35;;;;;;;25.05;20.90;;;14.80;99.90;;;;;;5052637;28;20025;-67
2022/09/10 03:42:04;;;;;;;21.88;19.70;;;14.70;99.90;;;;;;5058938;28;20094;-67
2022/09/10 03:44:32;;;;;;;24.27;21.48;;;14.70;99.90;;;;;;5053027;28;20056;-67
2022/09/10 03:46:59;;;;;;;24.45;21.67;;;14.70;99.90;;;;;;5058472;28;20038;-68
2022/09/10 03:49:25;;;;;;;25.52;21.67;;;14.70;99.90;;;;;;5041834;28;20080;-67
2022/09/10 03:51:52;;;;;;;25.30;21.88;;;14.70;99.90;;;;;;5024858;28;20060;-67
2022/09/10 03:54:18;;;;;;;24.02;20.27;;;14.70;99.90;;;;;;5070729;28;20056;-67
2022/09/10 03:56:44;;;;;;;24.80;21.77;;;14.70;99.90;;;;;;5044059;28;20045;-67
2022/09/10 03:59:12;;;;;;;24.65;21.95;;;14.70;99.90;;;;;;5053477;28;20470;-67
2022/09/10 04:01:38;;;;;;;25.90;21.02;;;14.70;99.90;;;;;;5067583;28;20053;-67
2022/09/10 04:04:04;;;;;;;24.85;22.23;;;14.80;99.90;;;;;;5055136;28;20056;-67
2022/09/10 04:06:33;;;;;;;23.63;20.15;;;14.80;99.90;;;;;;5062222;28;20017;-67
2022/09/10 04:09:00;;;;;;;28.27;22.42;;;14.80;99.90;;;;;;5040543;28;20068;-67
2022/09/10 04:11:26;;;;;;;25.92;20.85;;;14.80;99.90;;;;;;5039139;28;20037;-68
2022/09/10 04:13:53;;;;;;;24.98;22.15;;;14.80;99.90;;;;;;5059121;28;20063;-67
2022/09/10 04:16:21;;;;;;;23.77;21.27;;;14.90;99.90;;;;;;5067087;28;20088;-67
2022/09/10 04:18:46;;;;;;;27.20;21.67;;;14.80;99.90;;;;;;5064999;28;20121;-67
2022/09/10 04:21:12;;;;;;;26.70;21.63;;;14.90;99.90;;;;;;5063764;28;20159;-67
2022/09/10 04:23:40;;;;;;;26.65;21.58;;;14.80;99.90;;;;;;5032194;28;20036;-68
2022/09/10 04:26:17;;;;;;;26.00;21.20;;;14.90;99.90;;;;;;5049914;28;20055;-67
2022/09/10 04:28:43;;;;;;;26.23;21.27;;;14.90;99.90;;;;;;5050954;28;20037;-68
2022/09/10 04:31:10;;;;;;;25.77;22.17;;;14.90;99.90;;;;;;5056868;28;20041;-67
2022/09/10 04:33:36;;;;;;;26.05;22.50;;;14.90;99.90;;;;;;5046461;28;20112;-68
2022/09/10 04:36:03;;;;;;;27.83;22.77;;;14.90;99.90;;;;;;5064379;28;20041;-69
2022/09/10 04:38:29;;;;;;;24.73;21.85;;;14.90;99.90;;;;;;5061529;28;20037;-69
2022/09/10 04:40:56;;;;;;;27.80;21.52;;;15.00;99.90;;;;;;5058040;28;20029;-69
2022/09/10 04:43:24;;;;;;;26.63;20.10;;;14.90;99.90;;;;;;5046059;28;20094;-69
2022/09/10 04:45:51;;;;;;;27.13;22.08;;;15.00;99.90;;;;;;5056059;28;20096;-69
2022/09/10 04:48:17;;;;;;;31.83;21.77;;;15.00;99.90;;;;;;5059608;28;20044;-69
2022/09/10 04:50:43;;;;;;;29.63;22.23;;;15.10;99.90;;;;;;5055721;28;20033;-69
2022/09/10 04:53:09;;;;;;;30.65;22.88;;;15.00;99.90;;;;;;5061576;28;20052;-69
2022/09/10 04:55:38;;;;;;;29.30;20.58;;;15.00;99.90;;;;;;5058781;28;20068;-69
2022/09/10 04:58:04;;;;;;;28.73;22.27;;;15.10;99.90;;;;;;5059117;28;20025;-68
2022/09/10 05:00:31;;;;;;;28.80;22.23;;;15.00;99.90;;;;;;5063607;28;20041;-69
2022/09/10 05:02:56;;;;;;;29.40;22.38;;;15.10;99.90;;;;;;5076387;28;20076;-69
2022/09/10 05:05:22;;;;;;;30.33;22.10;;;15.10;99.90;;;;;;5043968;28;20072;-69
2022/09/10 05:07:48;;;;;;;27.35;21.52;;;15.10;99.90;;;;;;5058149;28;20037;-69
2022/09/10 05:10:14;;;;;;;29.58;21.70;;;15.10;99.90;;;;;;5059407;28;20033;-69
2022/09/10 05:12:40;;;;;;;32.78;21.33;;;15.10;99.90;;;;;;5058736;28;20030;-69
2022/09/10 05:15:06;;;;;;;24.75;20.83;;;15.10;99.90;;;;;;5060748;28;20131;-69
2022/09/10 05:17:32;;;;;;;30.05;22.65;;;15.10;99.90;;;;;;5044978;28;20143;-69
2022/09/10 05:19:58;;;;;;;29.80;23.50;;;15.10;99.90;;;;;;5061426;28;20135;-69
2022/09/10 05:22:24;;;;;;;26.17;22.38;;;15.10;99.90;;;;;;5059775;28;20037;-69
2022/09/10 05:24:50;;;;;;;30.13;21.05;;;15.20;99.90;;;;;;5062624;28;20060;-69
2022/09/10 05:27:16;;;;;;;31.08;21.65;;;15.20;99.90;;;;;;5040124;28;20475;-68
2022/09/10 05:29:42;;;;;;;28.63;20.55;;;15.20;99.90;;;;;;5062038;28;20037;-69
2022/09/10 05:32:12;;;;;;;29.50;22.17;;;15.20;99.90;;;;;;5061903;28;20188;-68
2022/09/10 05:34:38;;;;;;;29.75;21.92;;;15.20;99.90;;;;;;5060118;28;20132;-69
2022/09/10 05:37:05;;;;;;;29.90;21.98;;;15.30;99.90;;;;;;5061216;28;20075;-69
2022/09/10 05:39:30;;;;;;;31.63;23.13;;;15.20;99.90;;;;;;5062252;28;20033;-69
2022/09/10 05:41:56;;;;;;;27.13;22.52;;;15.20;99.90;;;;;;5062499;28;20583;-68
2022/09/10 05:44:22;;;;;;;32.13;22.38;;;15.20;99.90;;;;;;5077758;28;20069;-69
2022/09/10 05:46:47;;;;;;;29.75;23.15;;;15.30;99.90;;;;;;5063684;28;20045;-69
2022/09/10 05:49:14;;;;;;;30.45;23.10;;;15.30;99.90;;;;;;5076827;28;20036;-69
2022/09/10 05:51:40;;;;;;;31.67;23.80;;;15.30;99.90;;;;;;5061381;28;20041;-69
2022/09/10 05:54:06;;;;;;;26.73;21.98;;;15.40;99.90;;;;;;5062328;28;20050;-69
2022/09/10 05:56:31;;;;;;;30.50;22.48;;;15.30;99.90;;;;;;5056963;28;20431;-69
2022/09/10 05:58:57;;;;;;;27.13;22.48;;;15.40;99.90;;;;;;5043823;28;20052;-69
2022/09/10 06:01:23;;;;;;;30.38;22.25;;;15.40;99.90;;;;;;5059747;28;20501;-69
2022/09/10 06:03:49;;;;;;;31.95;23.08;;;15.40;99.90;;;;;;5076352;28;20144;-69
2022/09/10 06:06:16;;;;;;;30.27;22.17;;;15.50;99.90;;;;;;5060396;28;20032;-69
2022/09/10 06:08:42;;;;;;;26.33;21.23;;;15.50;99.90;;;;;;5061485;28;20029;-69
2022/09/10 06:11:10;;;;;;;31.58;23.85;;;15.50;99.90;;;;;;5063353;28;20048;-69
2022/09/10 06:13:41;;;;;;;33.10;23.13;;;15.50;99.90;;;;;;5060339;28;20053;-68
2022/09/10 06:16:06;;;;;;;32.30;24.05;;;15.60;99.90;;;;;;5078263;28;20099;-68
2022/09/10 06:18:32;;;;;;;31.70;23.98;;;15.60;99.90;;;;;;5060152;28;20036;-69
2022/09/10 06:21:06;;;;;;;29.67;23.10;;;15.60;99.90;;;;;;5059303;28;20033;-69
2022/09/10 06:23:32;;;;;;;30.33;24.55;;;15.60;99.90;;;;;;5061781;28;20171;-69
2022/09/10 06:26:03;;;;;;;31.33;22.58;;;15.60;99.90;;;;;;5059329;28;20092;-69
2022/09/10 06:28:31;;;;;;;28.05;23.27;;;15.70;99.90;;;;;;5063043;28;20114;-69
2022/09/10 06:30:57;;;;;;;26.05;22.38;;;15.70;99.90;;;;;;5063349;28;20078;-69
2022/09/10 06:33:23;;;;;;;31.95;24.52;;;15.70;99.90;;;;;;5041640;28;20080;-68
2022/09/10 06:36:08;;;;;;;29.80;23.40;;;15.80;99.90;;;;;;5062787;28;20041;-69
2022/09/10 06:38:35;;;;;;;29.70;23.98;;;15.80;99.90;;;;;;5059415;28;20405;-68
2022/09/10 06:41:04;;;;;;;35.50;24.17;;;15.90;99.90;;;;;;5064454;28;20048;-68
2022/09/10 06:43:36;;;;;;;29.70;22.45;;;15.90;99.90;;;;;;5060743;28;20029;-69
2022/09/10 06:46:08;;;;;;;30.17;23.75;;;16.00;99.90;;;;;;5073451;28;20076;-69
2022/09/10 06:48:38;;;;;;;26.02;22.85;;;16.00;99.90;;;;;;5057445;28;20037;-69
2022/09/10 06:51:06;;;;;;;31.55;24.13;;;16.00;99.90;;;;;;5063232;28;20033;-69
2022/09/10 06:53:32;;;;;;;32.58;24.42;;;16.00;99.90;;;;;;5057078;28;20044;-68
2022/09/10 06:55:59;;;;;;;27.60;21.40;;;16.00;99.90;;;;;;5043970;28;20073;-68
2022/09/10 06:58:25;;;;;;;30.38;24.42;;;16.10;99.90;;;;;;5044525;28;20052;-68
2022/09/10 07:00:51;;;;;;;31.52;24.50;;;16.00;99.90;;;;;;5077303;28;20099;-68
2022/09/10 07:03:18;;;;;;;31.80;24.67;;;16.10;99.90;;;;;;5077676;28;20048;-68
2022/09/10 07:05:45;;;;;;;30.02;22.33;;;16.10;99.90;;;;;;5038941;28;20952;-68
2022/09/10 07:08:16;;;;;;;37.97;23.40;;;16.10;99.90;;;;;;5076306;28;20109;-69
2022/09/10 07:10:43;;;;;;;28.05;21.50;;;16.10;99.90;;;;;;5056092;28;20040;-70
2022/09/10 07:13:09;;;;;;;30.55;23.42;;;16.10;99.90;;;;;;5060387;28;20041;-69
2022/09/10 07:15:35;;;;;;;31.63;23.23;;;16.10;99.90;;;;;;5041728;28;20064;-68
2022/09/10 07:18:02;;;;;;;33.03;24.02;;;16.10;99.90;;;;;;5062116;28;20439;-69
2022/09/10 07:20:29;;;;;;;30.65;24.65;;;16.10;99.90;;;;;;5078840;28;20055;-68
2022/09/10 07:22:55;;;;;;;29.15;23.60;;;16.10;99.90;;;;;;5040947;28;20068;-68
2022/09/10 07:25:22;;;;;;;29.88;23.75;;;16.20;99.90;;;;;;5060560;28;20094;-69
2022/09/10 07:27:49;;;;;;;28.27;22.35;;;16.20;99.90;;;;;;5078355;28;20057;-69
2022/09/10 07:30:15;;;;;;;29.20;22.50;;;16.20;99.90;;;;;;5059982;28;20155;-69
2022/09/10 07:32:42;;;;;;;28.92;23.45;;;16.30;99.90;;;;;;5060666;28;20037;-69
2022/09/10 07:35:08;;;;;;;28.92;22.25;;;16.30;99.90;;;;;;5057577;28;20044;-68
2022/09/10 07:37:34;;;;;;;32.25;23.08;;;16.30;99.90;;;;;;5063092;28;20076;-68
2022/09/10 07:40:00;;;;;;;28.77;22.52;;;16.30;99.90;;;;;;5075443;28;20049;-69
2022/09/10 07:42:25;;;;;;;25.88;22.50;;;16.30;99.90;;;;;;5062823;28;20085;-69
2022/09/10 07:44:51;;;;;;;25.10;21.13;;;16.40;99.90;;;;;;5062935;28;20037;-68
2022/09/10 07:47:17;;;;;;;26.88;20.63;;;16.50;99.90;;;;;;5075836;28;20049;-68
2022/09/10 07:49:43;;;;;;;22.33;19.80;;;16.50;99.90;;;;;;5075607;28;20060;-68
2022/09/10 07:52:11;;;;;;;21.67;19.15;;;16.60;99.90;;;;;;5059549;28;20041;-67
2022/09/10 07:54:37;;;;;;;26.90;20.88;;;16.70;99.90;;;;;;5059839;28;20036;-68
2022/09/10 07:57:03;;;;;;;21.75;19.50;;;16.80;99.90;;;;;;5058526;28;20041;-68
2022/09/10 07:59:30;;;;;;;21.83;18.13;;;16.90;99.90;;;;;;5057325;28;20128;-67
2022/09/10 08:01:58;;;;;;;24.80;18.75;;;17.10;99.90;;;;;;5059422;28;20041;-69
2022/09/10 08:04:23;;;;;;;21.08;17.52;;;17.20;99.90;;;;;;5059464;28;20373;-68
2022/09/10 08:06:50;;;;;;;20.83;18.33;;;17.20;99.90;;;;;;5059919;28;20029;-69
2022/09/10 08:09:18;;;;;;;20.73;17.55;;;17.30;99.90;;;;;;5062870;28;20033;-69
2022/09/10 08:11:44;;;;;;;18.70;16.65;;;17.30;99.90;;;;;;5046248;28;20056;-67
2022/09/10 08:14:09;;;;;;;18.48;16.60;;;17.40;99.90;;;;;;5065263;28;20433;-68
2022/09/10 08:16:35;;;;;;;18.50;15.43;;;17.40;99.90;;;;;;5079480;28;20048;-68
2022/09/10 08:19:01;;;;;;;22.75;20.45;;;17.50;99.90;;;;;;5062682;28;20045;-69
2022/09/10 08:21:29;;;;;;;22.98;17.58;;;17.50;99.90;;;;;;5062996;28;20041;-70
2022/09/10 08:23:55;;;;;;;20.90;16.52;;;17.60;99.90;;;;;;5042607;28;20056;-69
2022/09/10 08:26:22;;;;;;;17.42;15.52;;;17.60;99.90;;;;;;5064507;28;20081;-69
2022/09/10 08:28:49;;;;;;;20.90;16.15;;;17.60;99.90;;;;;;5064778;28;20072;-68
2022/09/10 08:31:15;;;;;;;19.05;15.55;;;17.60;99.90;;;;;;5079472;28;20067;-69
2022/09/10 08:33:47;;;;;;;16.48;14.85;;;17.60;99.90;;;;;;5059492;28;20220;-68
2022/09/10 08:36:15;;;;;;;18.45;15.35;;;17.60;99.90;;;;;;5062379;28;20041;-70
2022/09/10 08:38:42;;;;;;;20.20;16.27;;;17.60;99.90;;;;;;5059543;28;20048;-70
2022/09/10 08:41:22;;;;;;;17.23;15.32;;;17.60;99.90;;;;;;5063634;28;20053;-69
2022/09/10 08:43:50;;;;;;;17.08;14.73;;;17.70;99.90;;;;;;5058466;28;20525;-68
2022/09/10 08:46:21;;;;;;;18.65;16.75;;;17.70;99.90;;;;;;5060345;28;20033;-69
2022/09/10 08:49:18;;;;;;;17.02;15.05;;;17.80;99.90;;;;;;5058610;28;20040;-69
2022/09/10 08:51:50;;;;;;;15.90;13.25;;;17.90;99.90;;;;;;5075644;28;20104;-67
2022/09/10 08:55:06;;;;;;;16.33;12.90;;;18.00;99.90;;;;;;5078603;28;20052;-68
2022/09/10 08:57:38;;;;;;;18.00;11.40;;;18.10;99.90;;;;;;4984346;28;20055;-69
2022/09/10 09:00:09;;;;;;;11.32;9.95;;;18.30;99.90;;;;;;5086604;28;20084;-69
2022/09/10 09:02:52;;;;;;;14.70;11.73;;;18.40;99.90;;;;;;5067821;28;20041;-67
2022/09/10 09:05:21;;;;;;;12.60;10.45;;;18.50;99.90;;;;;;5064839;28;20045;-70
2022/09/10 09:07:48;;;;;;;14.30;9.77;;;18.60;99.90;;;;;;5078548;28;20057;-69
2022/09/10 09:10:39;;;;;;;12.82;7.30;;;18.70;99.90;;;;;;5044772;28;20046;-70
2022/09/10 09:13:32;;;;;;;6.95;5.32;;;18.70;99.90;;;;;;5076908;28;20075;-69
2022/09/10 09:16:05;;;;;;;8.18;6.07;;;18.80;99.90;;;;;;5075562;28;20053;-69
2022/09/10 09:18:37;;;;;;;10.25;6.53;;;19.00;99.90;;;;;;5063449;28;20091;-68
2022/09/10 09:21:41;;;;;;;9.07;5.90;;;19.10;99.90;;;;;;5059506;28;20533;-69
2022/09/10 09:24:54;;;;;;;7.93;5.18;;;19.20;99.90;;;;;;5038141;28;20052;-69
2022/09/10 09:27:20;;;;;;;4.88;3.92;;;19.40;99.90;;;;;;5048587;28;20404;-72
2022/09/10 09:30:00;;;;;;;5.88;3.53;;;19.40;99.90;;;;;;5030250;28;20064;-70
2022/09/10 09:32:29;;;;;;;5.45;3.67;;;19.60;99.90;;;;;;5051111;28;20078;-70
2022/09/10 09:35:03;;;;;;;7.13;3.90;;;19.80;99.90;;;;;;5047874;28;20057;-69
2022/09/10 09:37:30;;;;;;;6.05;3.85;;;19.90;99.90;;;;;;5034203;28;20170;-71
2022/09/10 09:40:23;;;;;;;6.78;3.97;;;20.20;99.90;;;;;;5034244;28;20096;-70
2022/09/10 09:42:57;;;;;;;4.20;2.80;;;20.50;99.90;;;;;;5034749;28;20099;-70
2022/09/10 09:45:46;;;;;;;7.30;3.92;;;21.10;99.90;;;;;;5044285;28;20037;-71
2022/09/10 09:48:14;;;;;;;7.43;4.32;;;21.50;99.90;;;;;;5062183;28;20451;-70
2022/09/10 09:50:47;;;;;;;5.68;3.70;;;21.70;99.90;;;;;;5051909;28;20033;-71
2022/09/10 09:53:27;;;;;;;5.75;4.20;;;21.70;99.90;;;;;;5045331;28;20116;-71
2022/09/10 09:56:00;;;;;;;4.18;3.22;;;21.90;99.90;;;;;;5044235;28;20056;-71
2022/09/10 09:58:35;;;;;;;4.38;2.80;;;22.10;99.90;;;;;;5048154;28;20043;-71
2022/09/10 10:01:03;;;;;;;6.13;3.03;;;22.20;99.90;;;;;;5048804;28;20037;-71
2022/09/10 10:03:49;;;;;;;4.28;2.95;;;22.10;99.90;;;;;;5040426;28;20183;-71
2022/09/10 10:06:16;;;;;;;4.35;2.80;;;22.10;99.90;;;;;;5046226;28;20041;-71
2022/09/10 10:08:58;;;;;;;6.28;3.08;;;22.10;99.90;;;;;;5052752;28;20045;-70
2022/09/10 10:11:58;;;;;;;5.40;3.13;;;21.90;99.90;;;;;;5053792;28;20033;-70
2022/09/10 10:14:37;;;;;;;5.45;3.45;;;21.70;99.90;;;;;;4994210;28;20064;-71
2022/09/10 10:17:25;;;;;;;4.57;3.05;;;21.70;99.90;;;;;;5020696;28;20056;-71
2022/09/10 10:20:11;;;;;;;4.35;3.22;;;21.70;99.90;;;;;;5038687;28;20041;-72
2022/09/10 10:22:39;;;;;;;6.10;3.00;;;21.80;99.90;;;;;;5036404;28;20051;-71
2022/09/10 10:25:47;;;;;;;4.85;3.63;;;21.70;99.90;;;;;;5056035;28;20045;-71
2022/09/10 10:28:24;;;;;;;7.63;4.70;;;21.60;99.90;;;;;;5046612;28;20052;-71
2022/09/10 10:30:53;;;;;;;7.15;4.80;;;21.50;99.90;;;;;;5026387;28;20042;-72
2022/09/10 10:33:30;;;;;;;8.57;5.53;;;21.30;99.90;;;;;;5041763;28;20047;-72
2022/09/10 10:36:17;;;;;;;7.35;5.47;;;21.30;99.90;;;;;;5030305;28;20041;-72
2022/09/10 10:39:10;;;;;;;6.97;6.03;;;21.20;99.90;;;;;;5036707;28;20041;-70
2022/09/10 10:41:54;;;;;;;9.03;6.03;;;21.00;99.90;;;;;;5048490;28;20052;-70
2022/09/10 10:44:35;;;;;;;10.75;6.10;;;20.80;99.90;;;;;;5042173;28;20080;-71
2022/09/10 10:47:12;;;;;;;8.82;6.57;;;20.70;99.90;;;;;;5024826;28;20052;-71
2022/09/10 10:50:15;;;;;;;8.48;5.57;;;20.80;99.90;;;;;;5038076;28;20033;-71
2022/09/10 10:52:47;;;;;;;9.45;6.57;;;21.00;99.90;;;;;;5051151;28;20402;-71
2022/09/10 10:55:23;;;;;;;7.70;5.88;;;21.00;99.90;;;;;;5042368;28;20551;-71
2022/09/10 10:58:28;;;;;;;11.60;6.00;;;21.00;99.90;;;;;;5053963;28;20061;-71
2022/09/10 11:01:05;;;;;;;10.13;5.93;;;21.20;99.90;;;;;;5056748;28;20068;-71
2022/09/10 11:03:59;;;;;;;6.50;4.63;;;21.30;99.90;;;;;;5017982;28;20119;-72
2022/09/10 11:06:34;;;;;;;9.88;4.07;;;21.40;99.90;;;;;;5055139;28;20137;-72
2022/09/10 11:09:15;;;;;;;6.43;4.38;;;21.60;99.90;;;;;;5030689;28;20041;-72
2022/09/10 11:12:06;;;;;;;7.63;5.00;;;22.10;99.90;;;;;;5039832;28;20045;-71
2022/09/10 11:14:57;;;;;;;5.90;3.97;;;22.10;99.90;;;;;;5040207;28;20042;-71
2022/09/10 11:17:38;;;;;;;5.93;4.10;;;22.00;99.90;;;;;;5058162;28;20053;-70
2022/09/10 11:20:28;;;;;;;5.07;4.03;;;22.20;99.90;;;;;;5053107;28;20049;-72
2022/09/10 11:23:29;;;;;;;5.25;4.05;;;22.30;99.90;;;;;;5038097;28;20592;-71
2022/09/10 11:26:17;;;;;;;8.20;4.32;;;22.50;99.90;;;;;;5058659;28;20057;-72
2022/09/10 11:29:06;;;;;;;5.53;3.78;;;22.50;99.90;;;;;;5027029;28;20053;-72
2022/09/10 11:31:39;;;;;;;6.30;4.50;;;22.40;99.90;;;;;;5022838;28;20045;-72
2022/09/10 11:34:16;;;;;;;7.30;3.92;;;22.20;99.90;;;;;;5025409;28;20057;-72
2022/09/10 11:36:59;;;;;;;5.00;4.30;;;22.20;99.90;;;;;;5058799;28;20163;-72
2022/09/10 11:39:37;;;;;;;5.47;3.58;;;22.50;99.90;;;;;;5034723;28;20055;-71
2022/09/10 11:42:16;;;;;;;6.55;4.60;;;22.60;99.90;;;;;;5042927;28;20504;-71
2022/09/10 11:45:01;;;;;;;5.47;4.72;;;22.60;99.90;;;;;;5033635;28;20058;-71
2022/09/10 11:47:33;;;;;;;7.00;5.30;;;22.30;99.90;;;;;;5063326;28;20069;-71
2022/09/10 11:50:09;;;;;;;6.63;5.28;;;22.10;99.90;;;;;;5047193;28;20068;-71
2022/09/10 11:52:34;;;;;;;8.95;5.30;;;21.80;99.90;;;;;;5042923;28;20041;-71
2022/09/10 11:55:03;;;;;;;6.78;5.00;;;21.90;99.90;;;;;;5023065;28;20061;-71
2022/09/10 11:57:56;;;;;;;6.40;4.90;;;22.60;99.90;;;;;;5060810;28;20089;-72
2022/09/10 12:00:24;;;;;;;6.40;4.67;;;23.30;99.90;;;;;;5051688;28;20068;-72
2022/09/10 12:03:08;;;;;;;8.63;4.90;;;23.50;99.90;;;;;;5025305;28;20314;-72
2022/09/10 12:05:37;;;;;;;;;;;23.60;99.40;;;;;;5024170;28;20064;-72
2022/09/10 12:08:27;;;;;;;6.03;4.05;;;23.40;98.20;;;;;;5041505;28;19969;-72
2022/09/10 12:11:13;;;;;;;7.78;5.10;;;23.10;99.90;;;;;;5047464;28;20048;-72
2022/09/10 12:13:40;;;;;;;11.32;5.90;;;22.90;99.90;;;;;;5031074;28;20057;-72
2022/09/10 12:16:17;;;;;;;6.22;4.78;;;22.50;99.90;;;;;;5050158;28;20464;-71
2022/09/10 12:18:47;;;;;;;7.82;5.03;;;22.30;99.90;;;;;;5022455;28;20053;-72
2022/09/10 12:21:36;;;;;;;7.38;4.68;;;22.20;99.90;;;;;;5037918;28;20033;-72
2022/09/10 12:24:29;;;;;;;7.25;4.00;;;22.50;99.90;;;;;;5004790;28;20049;-72
2022/09/10 12:26:58;;;;;;;7.38;5.30;;;22.90;99.90;;;;;;5045816;28;20087;-71
2022/09/10 12:29:39;;;;;;;7.53;5.47;;;23.20;99.90;;;;;;5030370;28;20124;-71
2022/09/10 12:32:12;;;;;;;9.10;5.65;;;23.00;99.90;;;;;;5049779;28;20230;-72
2022/09/10 12:34:39;;;;;;;6.05;4.60;;;22.70;99.90;;;;;;5046428;28;20041;-72
2022/09/10 12:37:04;;;;;;;6.78;5.47;;;22.40;99.90;;;;;;5023218;28;20065;-71
2022/09/10 12:39:30;;;;;;;7.70;5.95;;;22.30;99.90;;;;;;5057026;28;20061;-71
2022/09/10 12:42:24;;;;;;;9.73;5.72;;;22.30;99.90;;;;;;5038184;28;20076;-71
2022/09/10 12:44:50;;;;;;;6.93;5.10;;;22.30;99.90;;;;;;5020313;28;20115;-71
2022/09/10 12:47:15;;;;;;;6.78;5.50;;;22.30;99.90;;;;;;5036303;28;20578;-71
2022/09/10 12:49:57;;;;;;;8.05;5.82;;;22.30;99.90;;;;;;5063107;28;20396;-71
2022/09/10 12:52:50;;;;;;;7.60;5.45;;;22.40;99.90;;;;;;5054478;28;20136;-71
2022/09/10 12:55:46;;;;;;;9.63;5.63;;;22.40;99.90;;;;;;5048310;28;20064;-71
2022/09/10 12:58:52;;;;;;;9.32;5.90;;;22.30;99.90;;;;;;5057961;28;20076;-71